Time;durP1;ratioP1;P1;durP2;ratioP2;P2;SDS_P1;SDS_P2;PMS_P1;PMS_P2;Temp;Humidity;BMP_temperature;BMP_pressure;BME280_temperature;BME280_humidity;BME280_pressure;Samples;Min_cycle;Max_cycle;Signal;HPM_P1;HPM_P2
2022/10/17 00:01:02;;;;;;;17.10;8.90;;;;;;;13.58;99.77;101523.63;5008381;28;20039;-67
2022/10/17 00:03:30;;;;;;;15.63;8.93;;;;;;;13.60;99.96;101519.16;5005482;28;20078;-70
2022/10/17 00:05:58;;;;;;;14.95;8.35;;;;;;;13.60;99.92;101527.94;5000717;28;20093;-70
2022/10/17 00:08:25;;;;;;;14.20;9.10;;;;;;;13.60;100.00;101527.94;5005693;28;20050;-71
2022/10/17 00:11:08;;;;;;;11.77;8.77;;;;;;;13.62;99.94;101533.22;5008978;28;20533;-71
2022/10/17 00:13:35;;;;;;;11.10;8.38;;;;;;;13.63;100.00;101541.09;5008191;28;20093;-71
2022/10/17 00:16:03;;;;;;;15.15;9.02;;;;;;;13.65;100.00;101531.34;5009462;28;20042;-71
2022/10/17 00:18:31;;;;;;;12.48;8.88;;;;;;;13.64;100.00;101536.66;5010009;28;20042;-71
2022/10/17 00:20:58;;;;;;;12.02;9.05;;;;;;;13.65;100.00;101538.41;5012044;28;20058;-71
2022/10/17 00:23:27;;;;;;;12.20;9.02;;;;;;;13.66;100.00;101533.06;5015272;28;20050;-72
2022/10/17 00:26:04;;;;;;;13.25;9.07;;;;;;;13.69;100.00;101532.09;5007853;28;20046;-71
2022/10/17 00:28:31;;;;;;;13.35;8.55;;;;;;;13.70;100.00;101527.66;5011406;28;20101;-71
2022/10/17 00:31:02;;;;;;;12.70;9.55;;;;;;;13.72;100.00;101525.81;5011459;28;20124;-71
2022/10/17 00:33:32;;;;;;;13.43;9.10;;;;;;;13.71;100.00;101526.72;5025777;28;20039;-71
2022/10/17 00:36:12;;;;;;;12.68;9.48;;;;;;;13.73;100.00;101525.78;5004904;28;20489;-71
2022/10/17 00:38:42;;;;;;;14.10;8.48;;;;;;;13.73;100.00;101520.50;5011422;28;20117;-71
2022/10/17 00:41:13;;;;;;;12.23;8.27;;;;;;;13.74;100.00;101522.19;5009535;28;20522;-71
2022/10/17 00:44:01;;;;;;;12.98;8.55;;;;;;;13.74;100.00;101524.84;5011863;28;20046;-71
2022/10/17 00:46:37;;;;;;;14.13;8.38;;;;;;;13.76;100.00;101524.81;5010624;28;20575;-72
2022/10/17 00:49:10;;;;;;;16.55;8.48;;;;;;;13.76;100.00;101514.22;5011563;28;20050;-69
2022/10/17 00:51:49;;;;;;;11.32;8.23;;;;;;;13.79;100.00;101519.41;5007802;28;20043;-69
2022/10/17 00:54:23;;;;;;;12.13;8.93;;;;;;;13.79;100.00;101514.09;5010957;28;20050;-69
2022/10/17 00:56:52;;;;;;;10.05;7.63;;;;;;;13.82;100.00;101512.25;5003041;28;20042;-69
2022/10/17 00:59:22;;;;;;;13.25;8.05;;;;;;;13.87;100.00;101516.50;5007621;28;20540;-69
2022/10/17 01:02:10;;;;;;;14.98;8.30;;;;;;;13.87;100.00;101512.09;5011242;28;20046;-69
2022/10/17 01:04:42;;;;;;;14.13;8.32;;;;;;;13.89;100.00;101501.41;5001858;28;20068;-72
2022/10/17 01:07:10;;;;;;;13.77;8.50;;;;;;;13.89;100.00;101506.72;5011517;28;20065;-73
2022/10/17 01:09:40;;;;;;;15.45;8.55;;;;;;;13.91;100.00;101503.09;4999836;28;20054;-73
2022/10/17 01:12:27;;;;;;;13.32;9.18;;;;;;;13.92;100.00;101507.47;5004997;28;20059;-71
2022/10/17 01:15:28;;;;;;;12.63;8.13;;;;;;;13.95;100.00;101507.38;5003391;28;20050;-73
2022/10/17 01:18:14;;;;;;;12.10;8.43;;;;;;;13.96;100.00;101506.47;5012406;28;20045;-72
2022/10/17 01:21:28;;;;;;;14.95;8.82;;;;;;;13.97;100.00;101505.56;5011149;28;20062;-70
2022/10/17 01:24:39;;;;;;;11.93;7.88;;;;;;;13.98;100.00;101501.09;5011708;28;20085;-72
2022/10/17 01:27:42;;;;;;;12.43;8.07;;;;;;;14.00;100.00;101503.69;5009489;28;20141;-70
2022/10/17 01:30:42;;;;;;;13.52;8.48;;;;;;;14.02;100.00;101497.44;5002898;28;20130;-70
2022/10/17 01:33:17;;;;;;;11.02;8.15;;;;;;;14.04;100.00;101500.03;5010446;28;20047;-73
2022/10/17 01:35:54;;;;;;;13.20;8.75;;;;;;;14.05;100.00;101501.78;5009395;28;20042;-70
2022/10/17 01:38:31;;;;;;;15.57;7.72;;;;;;;14.06;100.00;101500.84;5001854;28;20039;-72
2022/10/17 01:41:16;;;;;;;10.88;7.63;;;;;;;14.08;100.00;101499.03;5007478;28;20038;-73
2022/10/17 01:44:03;;;;;;;13.35;7.60;;;;;;;14.12;100.00;101501.50;5008696;28;20690;-71
2022/10/17 01:46:39;;;;;;;11.85;7.95;;;;;;;14.12;100.00;101490.91;5010610;28;20572;-72
2022/10/17 01:49:12;;;;;;;12.45;8.20;;;;;;;14.16;100.00;101481.06;5009900;28;20423;-71
2022/10/17 01:51:53;;;;;;;11.23;7.72;;;;;;;14.20;100.00;101487.97;5009762;28;20042;-72
2022/10/17 01:54:37;;;;;;;12.18;7.45;;;;;;;14.21;100.00;101480.88;5009796;28;20963;-70
2022/10/17 01:57:23;;;;;;;13.10;7.90;;;;;;;14.23;100.00;101479.06;5009124;28;20042;-70
2022/10/17 01:59:55;;;;;;;12.32;8.38;;;;;;;14.23;100.00;101474.59;5007296;28;20465;-70
2022/10/17 02:02:24;;;;;;;10.25;8.20;;;;;;;14.25;100.00;101470.13;5007207;28;20043;-70
2022/10/17 02:04:55;;;;;;;11.88;8.07;;;;;;;14.28;100.00;101458.53;5019514;28;20568;-69
2022/10/17 02:07:23;;;;;;;12.57;8.48;;;;;;;14.32;100.00;101467.22;5006636;28;20131;-70
2022/10/17 02:09:52;;;;;;;14.45;8.23;;;;;;;14.33;100.00;101467.19;5009809;28;20046;-69
2022/10/17 02:12:40;;;;;;;13.85;8.20;;;;;;;14.36;100.00;101466.22;5006326;28;20039;-70
2022/10/17 02:15:50;;;;;;;12.80;8.27;;;;;;;14.38;100.00;101472.34;5007887;28;20053;-70
2022/10/17 02:18:45;;;;;;;11.93;8.15;;;;;;;14.40;100.00;101462.50;5009153;28;20050;-69
2022/10/17 02:21:18;;;;;;;;;;;;;;;14.40;100.00;101462.50;4996577;28;20540;-69
2022/10/17 02:23:58;;;;;;;12.70;7.95;;;;;;;14.41;100.00;101473.09;5020767;28;20028;-69
2022/10/17 02:26:46;;;;;;;10.98;8.35;;;;;;;14.43;100.00;101476.56;4999240;28;21092;-69
2022/10/17 02:29:27;;;;;;;9.77;7.93;;;;;;;14.44;100.00;101482.72;5009332;28;20053;-69
2022/10/17 02:32:05;;;;;;;11.45;7.82;;;;;;;14.43;100.00;101479.22;5007473;28;20039;-69
2022/10/17 02:34:42;;;;;;;11.40;8.07;;;;;;;14.43;100.00;101480.97;5007654;28;20071;-71
2022/10/17 02:37:17;;;;;;;10.70;8.07;;;;;;;14.42;100.00;101474.81;5009581;28;20050;-71
2022/10/17 02:39:46;;;;;;;13.43;8.23;;;;;;;14.40;100.00;101474.00;5025931;28;20046;-71
2022/10/17 02:42:15;;;;;;;9.35;7.57;;;;;;;14.42;100.00;101471.28;5004678;28;20182;-69
2022/10/17 02:44:45;;;;;;;10.43;7.47;;;;;;;14.41;100.00;101466.91;5008324;28;20077;-70
2022/10/17 02:47:41;;;;;;;12.07;7.82;;;;;;;14.43;100.00;101473.03;5009496;28;20129;-70
2022/10/17 02:50:10;;;;;;;10.85;7.28;;;;;;;14.42;100.00;101474.81;5006327;28;20628;-70
2022/10/17 02:53:00;;;;;;;15.38;8.10;;;;;;;14.42;100.00;101472.16;5013632;28;20035;-72
2022/10/17 02:55:38;;;;;;;14.68;7.78;;;;;;;14.41;100.00;101475.75;5007604;28;20053;-70
2022/10/17 02:58:15;;;;;;;10.45;7.57;;;;;;;14.40;100.00;101474.00;5010913;28;20046;-71
2022/10/17 03:00:43;;;;;;;11.77;8.20;;;;;;;14.39;100.00;101477.56;5014955;28;20030;-71
2022/10/17 03:03:28;;;;;;;11.63;7.97;;;;;;;14.40;100.00;101473.13;5009409;28;20053;-71
2022/10/17 03:05:59;;;;;;;12.05;7.63;;;;;;;14.39;100.00;101472.28;5005527;28;20042;-69
2022/10/17 03:08:26;;;;;;;13.32;8.00;;;;;;;14.38;100.00;101475.00;5008804;28;20050;-71
2022/10/17 03:10:55;;;;;;;15.43;8.35;;;;;;;14.40;100.00;101476.66;5008820;28;20114;-69
2022/10/17 03:13:23;;;;;;;15.40;7.80;;;;;;;14.40;100.00;101474.00;5008644;28;20074;-71
2022/10/17 03:15:50;;;;;;;12.43;7.90;;;;;;;14.41;100.00;101470.44;5009357;28;20046;-68
2022/10/17 03:18:17;;;;;;;15.02;7.95;;;;;;;14.43;100.00;101473.03;5008095;28;20078;-69
2022/10/17 03:20:46;;;;;;;13.25;8.63;;;;;;;14.42;100.00;101472.16;5008170;28;20161;-69
2022/10/17 03:23:13;;;;;;;10.23;7.82;;;;;;;14.45;100.00;101479.13;5007987;28;20508;-69
2022/10/17 03:25:41;;;;;;;8.68;7.45;;;;;;;14.45;100.00;101474.69;5009081;28;20995;-69
2022/10/17 03:28:10;;;;;;;12.25;8.00;;;;;;;14.47;100.00;101473.75;5008533;28;20045;-70
2022/10/17 03:30:38;;;;;;;13.00;8.60;;;;;;;14.48;100.00;101479.03;5007218;28;20077;-70
2022/10/17 03:33:06;;;;;;;13.77;8.15;;;;;;;14.49;100.00;101477.25;5008110;28;20046;-72
2022/10/17 03:35:33;;;;;;;13.52;8.10;;;;;;;14.49;100.00;101482.53;5006762;28;20807;-69
2022/10/17 03:38:00;;;;;;;12.10;7.90;;;;;;;14.49;100.00;101485.19;5007099;28;20078;-69
2022/10/17 03:40:28;;;;;;;12.90;7.90;;;;;;;14.50;100.00;101476.31;5004126;28;20050;-69
2022/10/17 03:42:55;;;;;;;12.85;8.13;;;;;;;14.50;100.00;101487.78;5002591;28;20046;-70
2022/10/17 03:45:23;;;;;;;13.68;7.80;;;;;;;14.53;100.00;101489.47;5006625;28;20658;-69
2022/10/17 03:47:51;;;;;;;10.65;7.65;;;;;;;14.54;100.00;101488.56;5005842;28;20038;-62
2022/10/17 03:50:18;;;;;;;15.40;7.78;;;;;;;14.53;100.00;101490.34;5034614;28;20053;-62
2022/10/17 03:52:48;;;;;;;12.45;8.48;;;;;;;14.53;100.00;101497.44;5007831;28;20132;-61
2022/10/17 03:55:16;;;;;;;13.18;7.80;;;;;;;14.54;100.00;101496.53;5010480;28;20412;-62
2022/10/17 03:57:44;;;;;;;13.07;7.55;;;;;;;14.53;100.00;101498.28;5008086;28;20110;-62
2022/10/17 04:00:13;;;;;;;9.85;7.38;;;;;;;14.53;100.00;101489.47;5009019;28;20038;-62
2022/10/17 04:02:40;;;;;;;12.15;7.53;;;;;;;14.54;100.00;101488.56;5009860;28;20048;-62
2022/10/17 04:05:13;;;;;;;11.18;7.82;;;;;;;14.55;100.00;101491.16;5026524;28;20183;-62
2022/10/17 04:07:40;;;;;;;12.75;8.27;;;;;;;14.56;100.00;101492.88;5010273;28;20043;-63
2022/10/17 04:10:09;;;;;;;12.30;8.05;;;;;;;14.58;100.00;101490.16;5008756;28;20124;-63
2022/10/17 04:12:36;;;;;;;11.20;7.72;;;;;;;14.58;100.00;101490.16;5008314;28;20054;-63
2022/10/17 04:15:05;;;;;;;11.18;7.85;;;;;;;14.59;100.00;101489.25;5026368;28;20146;-63
2022/10/17 04:17:32;;;;;;;10.63;7.63;;;;;;;14.60;100.00;101486.53;5009281;28;20052;-64
2022/10/17 04:20:06;;;;;;;12.73;7.60;;;;;;;14.63;100.00;101482.91;5008986;28;20431;-71
2022/10/17 04:22:33;;;;;;;12.43;7.55;;;;;;;14.66;100.00;101490.72;5008431;28;20043;-71
2022/10/17 04:25:01;;;;;;;10.35;7.07;;;;;;;14.71;100.00;101488.81;5009306;28;20046;-71
2022/10/17 04:27:40;;;;;;;12.43;8.07;;;;;;;14.74;100.00;101479.88;5024030;28;20061;-74
2022/10/17 04:30:08;;;;;;;14.07;7.38;;;;;;;14.75;100.00;101482.47;5011352;28;20509;-74
2022/10/17 04:32:37;;;;;;;12.00;7.43;;;;;;;14.78;100.00;101485.94;5025381;28;20038;-71
2022/10/17 04:35:20;;;;;;;8.95;6.93;;;;;;;14.80;100.00;101482.31;5008313;28;20049;-72
2022/10/17 04:37:55;;;;;;;13.68;8.00;;;;;;;14.82;100.00;101477.78;5010927;28;20064;-72
2022/10/17 04:40:24;;;;;;;9.30;7.32;;;;;;;14.86;100.00;101486.50;5012227;28;20047;-71
2022/10/17 04:42:52;;;;;;;10.38;7.32;;;;;;;14.89;100.00;101489.94;5009936;28;20709;-71
2022/10/17 04:45:23;;;;;;;9.68;6.72;;;;;;;14.93;100.00;101511.03;5010432;28;20213;-70
2022/10/17 04:47:56;;;;;;;9.20;7.00;;;;;;;14.97;100.00;101516.16;5007450;28;20540;-70
2022/10/17 04:50:23;;;;;;;9.55;6.78;;;;;;;15.00;100.00;101509.88;5020392;28;20093;-70
2022/10/17 04:53:13;;;;;;;12.18;7.50;;;;;;;15.01;100.00;101496.53;5010748;28;20097;-69
2022/10/17 04:55:40;;;;;;;12.02;6.65;;;;;;;15.01;100.00;101504.50;5012854;28;20471;-70
2022/10/17 04:58:07;;;;;;;10.15;6.55;;;;;;;15.00;100.00;101524.03;5003899;28;20102;-70
2022/10/17 05:00:35;;;;;;;10.65;6.45;;;;;;;15.01;100.00;101525.75;5019499;28;20141;-70
2022/10/17 05:03:18;;;;;;;10.32;6.60;;;;;;;15.01;100.00;101527.53;5020876;28;20047;-70
2022/10/17 05:05:46;;;;;;;9.00;6.65;;;;;;;15.01;100.00;101524.88;5026981;28;20077;-69
2022/10/17 05:08:13;;;;;;;8.63;6.03;;;;;;;15.02;100.00;101531.91;5009168;28;20038;-70
2022/10/17 05:10:44;;;;;;;12.65;6.10;;;;;;;15.00;100.00;101520.50;5007916;28;20078;-70
2022/10/17 05:13:13;;;;;;;15.30;6.20;;;;;;;15.01;100.00;101524.88;5009327;28;20047;-71
2022/10/17 05:15:40;;;;;;;10.80;6.47;;;;;;;14.99;100.00;101524.94;5025423;28;20043;-71
2022/10/17 05:18:08;;;;;;;8.88;6.45;;;;;;;14.98;100.00;101525.84;5010001;28;20042;-70
2022/10/17 05:20:36;;;;;;;8.85;6.50;;;;;;;14.96;100.00;101535.66;5025749;28;20073;-70
2022/10/17 05:23:05;;;;;;;10.85;6.57;;;;;;;14.96;100.00;101534.81;5011080;28;20473;-70
2022/10/17 05:25:38;;;;;;;10.82;6.90;;;;;;;14.94;100.00;101542.84;5020711;28;20042;-71
2022/10/17 05:28:05;;;;;;;12.18;6.85;;;;;;;14.93;100.00;101543.75;5003604;28;20203;-72
2022/10/17 05:30:34;;;;;;;9.75;7.00;;;;;;;14.88;100.00;101541.28;5011887;28;20049;-70
2022/10/17 05:33:05;;;;;;;9.80;6.90;;;;;;;14.84;100.00;101529.03;5023268;28;20070;-70
2022/10/17 05:35:33;;;;;;;10.63;6.95;;;;;;;14.82;100.00;101530.88;5007873;28;20046;-72
2022/10/17 05:38:01;;;;;;;11.00;7.25;;;;;;;14.81;100.00;101544.22;5009729;28;20042;-70
2022/10/17 05:40:30;;;;;;;8.50;6.72;;;;;;;14.79;100.00;101543.41;5007432;28;20054;-71
2022/10/17 05:42:57;;;;;;;11.30;7.03;;;;;;;14.78;100.00;101547.84;5009001;28;20046;-71
2022/10/17 05:45:25;;;;;;;11.07;7.15;;;;;;;14.77;100.00;101548.78;5020759;28;20829;-70
2022/10/17 05:47:52;;;;;;;9.50;7.05;;;;;;;14.80;100.00;101553.97;5008188;28;20063;-71
2022/10/17 05:50:20;;;;;;;19.23;7.05;;;;;;;14.82;100.00;101551.25;5022314;28;20482;-71
2022/10/17 05:53:04;;;;;;;10.27;6.65;;;;;;;14.86;100.00;101558.16;5026555;28;20041;-71
2022/10/17 05:55:36;;;;;;;9.90;7.30;;;;;;;14.87;100.00;101563.44;5008270;28;20150;-71
2022/10/17 05:58:04;;;;;;;10.27;7.10;;;;;;;14.89;100.00;101566.03;5006320;28;20583;-70
2022/10/17 06:00:36;;;;;;;9.30;6.35;;;;;;;14.89;100.00;101572.22;5007132;28;20047;-71
2022/10/17 06:03:29;;;;;;;12.10;7.38;;;;;;;14.91;100.00;101572.16;5009038;28;20057;-71
2022/10/17 06:06:04;;;;;;;11.77;7.20;;;;;;;14.92;100.00;101571.22;5021878;28;20045;-72
2022/10/17 06:08:31;;;;;;;11.43;6.97;;;;;;;14.94;100.00;101573.81;5014165;28;20034;-71
2022/10/17 06:11:01;;;;;;;9.73;7.05;;;;;;;14.96;100.00;101582.59;5011336;28;20114;-70
2022/10/17 06:13:36;;;;;;;10.52;7.00;;;;;;;14.96;100.00;101577.28;5009450;28;20405;-70
2022/10/17 06:16:12;;;;;;;12.38;7.05;;;;;;;14.96;100.00;101579.94;5012664;28;20050;-70
2022/10/17 06:18:39;;;;;;;10.25;6.68;;;;;;;14.96;100.00;101582.59;5009097;28;20078;-70
2022/10/17 06:21:11;;;;;;;8.93;6.82;;;;;;;14.95;100.00;101591.47;5009858;28;20082;-70
2022/10/17 06:23:43;;;;;;;11.40;7.30;;;;;;;14.93;100.00;101590.66;5002783;28;20117;-71
2022/10/17 06:26:16;;;;;;;12.85;7.25;;;;;;;14.93;100.00;101591.56;5042855;28;20053;-71
2022/10/17 06:28:44;;;;;;;12.90;6.88;;;;;;;14.93;100.00;101591.56;5012169;28;20093;-71
2022/10/17 06:31:16;;;;;;;9.60;6.78;;;;;;;14.94;100.00;101593.28;5010325;28;20105;-71
2022/10/17 06:33:45;;;;;;;9.48;7.07;;;;;;;14.94;100.00;101603.03;5010547;28;20050;-72
2022/10/17 06:36:14;;;;;;;9.75;6.60;;;;;;;14.94;100.00;101603.03;5014047;28;20868;-71
2022/10/17 06:38:43;;;;;;;9.93;7.15;;;;;;;14.96;100.00;101603.84;5010279;28;20038;-71
2022/10/17 06:41:20;;;;;;;11.95;7.15;;;;;;;14.99;100.00;101604.59;5011022;28;20273;-71
2022/10/17 06:43:51;;;;;;;12.38;7.07;;;;;;;15.02;100.00;101596.53;5014255;28;20046;-71
2022/10/17 06:46:39;;;;;;;9.95;7.13;;;;;;;15.06;100.00;101599.91;5010140;28;20551;-70
2022/10/17 06:49:09;;;;;;;10.05;7.18;;;;;;;15.09;100.00;101597.16;5012316;28;20752;-70
2022/10/17 06:51:47;;;;;;;8.60;6.80;;;;;;;15.13;100.00;101597.91;5009932;28;20069;-70
2022/10/17 06:54:18;;;;;;;10.35;6.85;;;;;;;15.18;100.00;101598.59;5005372;28;20057;-70
2022/10/17 06:57:07;;;;;;;12.90;7.00;;;;;;;15.22;100.00;101597.56;5030484;28;22424;-70
2022/10/17 06:59:50;;;;;;;9.90;7.22;;;;;;;15.24;100.00;101590.41;5013387;28;20047;-70
2022/10/17 07:02:23;;;;;;;13.45;7.30;;;;;;;15.29;100.00;101593.75;5007907;28;20124;-71
2022/10/17 07:04:51;;;;;;;14.77;7.70;;;;;;;15.33;100.00;101594.47;5026631;28;20046;-70
2022/10/17 07:07:18;;;;;;;12.73;6.90;;;;;;;15.37;100.00;101602.28;5029879;28;20038;-69
2022/10/17 07:09:45;;;;;;;11.30;6.90;;;;;;;15.43;100.00;101605.63;5042495;28;20069;-70
2022/10/17 07:12:14;;;;;;;12.55;7.00;;;;;;;15.48;100.00;101603.66;5029709;28;20088;-69
2022/10/17 07:14:46;;;;;;;10.38;6.80;;;;;;;15.55;99.94;101604.28;5017464;28;20484;-70
2022/10/17 07:17:13;;;;;;;10.30;7.07;;;;;;;15.60;99.87;101613.81;5040932;28;20049;-70
2022/10/17 07:19:42;;;;;;;10.88;7.00;;;;;;;15.68;99.61;101616.19;5011085;28;20046;-70
2022/10/17 07:22:12;;;;;;;9.77;6.90;;;;;;;15.79;99.22;101619.28;5043236;28;20051;-70
2022/10/17 07:24:42;;;;;;;9.88;6.53;;;;;;;15.89;98.83;101616.28;5024602;28;20046;-70
2022/10/17 07:27:44;;;;;;;11.73;6.25;;;;;;;15.96;98.80;101620.41;5035357;28;20124;-70
2022/10/17 07:30:14;;;;;;;8.95;6.20;;;;;;;16.02;98.54;101617.53;5049680;28;20077;-70
2022/10/17 07:32:53;;;;;;;10.82;6.35;;;;;;;16.05;98.44;101621.84;5036932;28;20708;-70
2022/10/17 07:35:20;;;;;;;11.55;6.35;;;;;;;16.09;98.21;101629.63;5014505;28;20043;-70
2022/10/17 07:37:47;;;;;;;9.32;6.38;;;;;;;16.12;97.81;101633.94;5045728;28;20043;-70
2022/10/17 07:40:17;;;;;;;10.27;6.03;;;;;;;16.17;98.07;101641.75;5029345;28;20049;-70
2022/10/17 07:42:44;;;;;;;8.88;6.15;;;;;;;16.21;98.07;101630.91;5012850;28;20053;-69
2022/10/17 07:45:12;;;;;;;9.13;6.40;;;;;;;16.25;98.01;101648.47;5029826;28;20117;-70
2022/10/17 07:47:42;;;;;;;10.80;6.30;;;;;;;16.29;97.53;101655.38;5012929;28;20177;-70
2022/10/17 07:50:12;;;;;;;11.55;6.85;;;;;;;16.33;96.88;101665.91;5012934;28;20046;-69
2022/10/17 07:52:41;;;;;;;15.18;6.18;;;;;;;16.32;96.62;101673.03;5014345;28;20050;-70
2022/10/17 07:55:08;;;;;;;12.35;6.40;;;;;;;16.31;97.01;101671.31;5013791;28;20093;-70
2022/10/17 07:57:35;;;;;;;9.90;5.97;;;;;;;16.30;96.69;101678.41;5013985;28;20042;-70
2022/10/17 08:00:05;;;;;;;9.65;6.03;;;;;;;16.28;96.72;101677.59;5014382;28;20085;-69
2022/10/17 08:02:38;;;;;;;10.23;5.72;;;;;;;16.26;96.87;101689.25;5013719;28;20573;-69
2022/10/17 08:05:06;;;;;;;7.15;5.43;;;;;;;16.24;97.02;101691.97;5014171;28;20046;-71
2022/10/17 08:07:33;;;;;;;10.00;6.80;;;;;;;16.25;96.88;101706.13;5013073;28;20062;-71
2022/10/17 08:10:00;;;;;;;9.73;5.80;;;;;;;16.27;97.00;101712.25;5014065;28;20552;-70
2022/10/17 08:12:30;;;;;;;11.57;6.55;;;;;;;16.30;97.08;101718.31;5014034;28;20039;-70
2022/10/17 08:15:00;;;;;;;9.35;6.18;;;;;;;16.36;97.25;101734.97;5013652;28;20085;-69
2022/10/17 08:17:29;;;;;;;13.07;6.30;;;;;;;16.39;97.29;101730.38;5013817;28;20046;-69
2022/10/17 08:19:56;;;;;;;10.50;6.30;;;;;;;16.40;97.32;101739.22;5013627;28;20496;-69
2022/10/17 08:22:24;;;;;;;9.73;6.28;;;;;;;16.43;97.54;101745.28;5013362;28;20125;-71
2022/10/17 08:24:52;;;;;;;9.63;6.30;;;;;;;16.48;97.11;101749.56;5012422;28;20049;-72
2022/10/17 08:27:23;;;;;;;8.90;6.25;;;;;;;16.54;96.39;101755.50;5013324;28;20046;-71
2022/10/17 08:29:52;;;;;;;9.57;6.10;;;;;;;16.61;96.69;101764.13;5019289;28;20046;-71
2022/10/17 08:32:23;;;;;;;9.18;6.70;;;;;;;16.67;97.14;101763.00;5015528;28;20631;-71
2022/10/17 08:34:55;;;;;;;11.07;6.95;;;;;;;16.74;97.17;101761.81;5013669;28;20494;-71
2022/10/17 08:37:22;;;;;;;9.75;7.28;;;;;;;16.80;97.04;101769.53;5024664;28;20104;-71
2022/10/17 08:39:49;;;;;;;12.07;7.22;;;;;;;16.83;97.29;101774.72;5032946;28;20041;-71
2022/10/17 08:42:49;;;;;;;11.32;6.85;;;;;;;16.87;97.33;101776.34;5029739;28;20089;-71
2022/10/17 08:45:41;;;;;;;13.93;7.05;;;;;;;16.91;97.10;101777.06;5028711;28;20046;-71
2022/10/17 08:48:17;;;;;;;14.48;7.50;;;;;;;16.92;96.98;101797.47;5015669;28;20046;-71
2022/10/17 08:50:58;;;;;;;11.00;7.63;;;;;;;16.92;96.80;101805.44;5016023;28;20485;-71
2022/10/17 08:53:56;;;;;;;12.25;7.65;;;;;;;16.91;96.59;101809.88;5013456;28;20540;-71
2022/10/17 08:56:33;;;;;;;16.88;8.05;;;;;;;16.91;96.83;101822.34;5013175;28;20050;-71
2022/10/17 08:59:24;;;;;;;17.45;7.90;;;;;;;16.93;96.80;101815.16;5025656;28;20116;-71
2022/10/17 09:02:26;;;;;;;21.05;8.82;;;;;;;16.95;96.92;101813.31;5015154;28;20055;-71
2022/10/17 09:05:33;;;;;;;16.48;8.23;;;;;;;16.98;96.82;101813.19;5016913;28;20043;-71
2022/10/17 09:08:30;;;;;;;12.70;7.60;;;;;;;17.00;97.22;101813.13;5005568;28;20822;-71
2022/10/17 09:11:25;;;;;;;15.52;8.00;;;;;;;17.02;97.15;101813.94;5012647;28;20046;-72
2022/10/17 09:14:41;;;;;;;17.58;8.07;;;;;;;17.05;97.16;101814.66;5011414;28;20083;-71
2022/10/17 09:17:55;;;;;;;16.83;8.00;;;;;;;17.09;97.08;101823.41;5009394;28;20103;-71
2022/10/17 09:20:29;;;;;;;12.80;6.82;;;;;;;17.13;97.49;101818.81;5012776;28;20049;-71
2022/10/17 09:23:11;;;;;;;9.50;7.13;;;;;;;17.18;97.34;101819.47;5020294;28;20120;-71
2022/10/17 09:25:51;;;;;;;9.02;6.72;;;;;;;17.24;97.16;101813.91;5026734;28;20038;-71
2022/10/17 09:28:32;;;;;;;11.88;6.65;;;;;;;17.33;96.80;101810.84;5012869;28;20050;-71
2022/10/17 09:31:12;;;;;;;15.80;7.18;;;;;;;17.39;95.89;101818.56;5012042;28;20047;-71
2022/10/17 09:33:43;;;;;;;7.90;5.70;;;;;;;17.40;95.95;101822.06;5017934;28;20050;-71
2022/10/17 09:36:38;;;;;;;11.80;5.93;;;;;;;17.41;95.74;101823.81;5014513;28;20535;-71
2022/10/17 09:39:19;;;;;;;8.20;5.05;;;;;;;17.43;95.28;101827.28;5010221;28;20153;-71
2022/10/17 09:41:51;;;;;;;8.40;4.97;;;;;;;17.43;95.16;101850.41;5014779;28;20054;-71
2022/10/17 09:44:34;;;;;;;10.93;5.70;;;;;;;17.37;95.07;101879.06;5014079;28;20042;-71
2022/10/17 09:47:21;;;;;;;9.15;4.90;;;;;;;17.33;94.23;101941.44;5011614;28;20042;-72
2022/10/17 09:49:49;;;;;;;15.48;6.13;;;;;;;17.26;94.14;101953.25;5026118;28;20042;-71
2022/10/17 09:52:33;;;;;;;10.57;5.35;;;;;;;17.14;94.02;101860.53;5020019;28;20503;-70
2022/10/17 09:55:14;;;;;;;11.85;5.68;;;;;;;16.97;94.98;101834.59;5020759;28;20057;-71
2022/10/17 09:57:55;;;;;;;10.50;5.75;;;;;;;16.85;95.59;101801.28;5031456;28;20049;-71
2022/10/17 10:00:31;;;;;;;17.17;6.53;;;;;;;16.74;96.44;101801.75;5028942;28;20029;-71
2022/10/17 10:03:23;;;;;;;11.00;6.13;;;;;;;16.65;97.12;101818.94;5019434;28;20505;-71
2022/10/17 10:06:15;;;;;;;15.52;6.40;;;;;;;16.59;97.64;101833.38;4993418;28;20034;-71
2022/10/17 10:09:02;;;;;;;12.65;7.57;;;;;;;16.58;98.22;101828.13;5013136;28;20046;-71
2022/10/17 10:11:48;;;;;;;16.38;7.95;;;;;;;16.58;98.52;101836.94;5011993;28;20089;-71
2022/10/17 10:14:35;;;;;;;13.90;7.20;;;;;;;16.63;99.17;101844.78;5015900;28;20050;-72
2022/10/17 10:17:37;;;;;;;10.25;6.22;;;;;;;16.65;99.31;101863.34;5010787;28;20074;-70
2022/10/17 10:20:31;;;;;;;16.52;6.57;;;;;;;16.63;99.49;101886.50;5015705;28;20523;-71
2022/10/17 10:23:14;;;;;;;13.03;6.53;;;;;;;16.62;99.89;101880.31;5018508;28;20046;-71
2022/10/17 10:25:55;;;;;;;13.13;7.15;;;;;;;16.60;100.00;101871.50;5012559;28;20539;-71
2022/10/17 10:28:33;;;;;;;11.80;7.22;;;;;;;16.60;100.00;101856.41;5012424;28;20042;-71
2022/10/17 10:31:08;;;;;;;13.77;7.90;;;;;;;16.64;100.00;101865.13;5000933;28;20516;-71
2022/10/17 10:33:42;;;;;;;14.38;8.10;;;;;;;16.68;100.00;101872.06;5020851;28;20053;-71
2022/10/17 10:36:15;;;;;;;15.00;8.63;;;;;;;16.70;100.00;101885.31;5022742;28;20046;-71
2022/10/17 10:38:55;;;;;;;12.25;7.28;;;;;;;16.69;100.00;101888.91;5012669;28;20070;-71
2022/10/17 10:41:26;;;;;;;14.00;7.13;;;;;;;16.66;100.00;101870.41;5011268;28;20101;-71
2022/10/17 10:43:55;;;;;;;8.98;6.38;;;;;;;16.63;100.00;101879.38;5021785;28;20053;-71
2022/10/17 10:46:28;;;;;;;10.13;6.88;;;;;;;16.63;100.00;101876.72;5021721;28;20046;-72
2022/10/17 10:48:59;;;;;;;14.85;6.85;;;;;;;16.61;100.00;101870.59;5014485;28;20093;-73
2022/10/17 10:51:48;;;;;;;10.73;7.32;;;;;;;16.62;100.00;101882.97;5030978;28;20538;-72
2022/10/17 10:54:24;;;;;;;9.90;7.13;;;;;;;16.60;100.00;101879.50;5030544;28;20041;-70
2022/10/17 10:56:58;;;;;;;12.63;7.38;;;;;;;16.61;100.00;101884.75;5031049;28;20038;-70
2022/10/17 10:59:38;;;;;;;14.18;6.78;;;;;;;16.66;100.00;101889.03;5027529;28;20049;-71
2022/10/17 11:02:20;;;;;;;13.20;8.20;;;;;;;16.67;100.00;101874.81;5017822;28;20054;-71
2022/10/17 11:05:10;;;;;;;14.48;8.65;;;;;;;16.76;100.00;101887.75;5016750;28;20128;-71
2022/10/17 11:07:57;;;;;;;15.57;8.45;;;;;;;16.83;100.00;101901.69;5018387;28;20042;-71
2022/10/17 11:10:45;;;;;;;13.57;8.68;;;;;;;16.88;100.00;101900.59;5017236;28;20043;-72
2022/10/17 11:13:27;;;;;;;13.05;8.55;;;;;;;16.92;100.00;101906.66;5011145;28;20042;-71
2022/10/17 11:16:17;;;;;;;12.52;9.48;;;;;;;16.94;100.00;101909.28;5016938;28;20095;-72
2022/10/17 11:19:15;;;;;;;15.10;9.77;;;;;;;16.98;100.00;101916.22;5027049;28;20138;-71
2022/10/17 11:22:04;;;;;;;15.05;10.63;;;;;;;17.01;100.00;101916.97;5012305;28;20120;-72
2022/10/17 11:24:55;;;;;;;17.40;10.57;;;;;;;17.05;100.00;101923.88;5001725;28;20055;-71
2022/10/17 11:27:24;;;;;;;18.48;11.20;;;;;;;17.06;100.00;101920.28;5011564;28;20077;-72
2022/10/17 11:29:57;;;;;;;14.80;10.43;;;;;;;17.12;100.00;101923.66;5009424;28;20050;-72
2022/10/17 11:32:46;;;;;;;17.35;11.80;;;;;;;17.18;100.00;101939.38;5007182;28;20046;-70
2022/10/17 11:35:23;;;;;;;15.02;11.02;;;;;;;17.21;100.00;101947.25;5011188;28;20496;-69
2022/10/17 11:38:15;;;;;;;17.02;11.18;;;;;;;17.21;100.00;101955.25;5009212;28;20626;-70
2022/10/17 11:40:49;;;;;;;19.38;11.32;;;;;;;17.19;100.00;101951.78;5018477;28;20046;-69
2022/10/17 11:43:31;;;;;;;15.52;10.45;;;;;;;17.17;100.00;101953.63;5014492;28;20038;-70
2022/10/17 11:46:14;;;;;;;15.85;8.63;;;;;;;17.17;100.00;101966.94;5012841;28;20042;-70
2022/10/17 11:49:06;;;;;;;12.40;8.30;;;;;;;17.13;100.00;101974.19;4996668;28;20588;-70
2022/10/17 11:52:09;;;;;;;13.95;8.70;;;;;;;17.10;100.00;101971.66;5018604;28;20046;-70